Time;durP1;ratioP1;P1;durP2;ratioP2;P2;SDS_P1;SDS_P2;PMS_P1;PMS_P2;Temp;Humidity;BMP_temperature;BMP_pressure;BME280_temperature;BME280_humidity;BME280_pressure;Samples;Min_cycle;Max_cycle;Signal;HPM_P1;HPM_P2
2021/01/19 00:00:06;;;;;;;8.77;2.15;;;9.20;99.90;;;8.42;93.13;101760.59;4118986;28;20026;-71
2021/01/19 00:02:07;;;;;;;12.88;3.03;;;9.20;99.90;;;8.42;92.84;101765.84;4119743;28;20070;-72
2021/01/19 00:04:08;;;;;;;8.98;1.90;;;9.20;99.90;;;8.43;93.01;101764.03;4119954;28;20038;-72
2021/01/19 00:06:09;;;;;;;11.05;2.55;;;9.20;99.90;;;8.43;92.91;101769.28;4118181;28;20074;-71
2021/01/19 00:08:10;;;;;;;6.75;2.90;;;9.30;99.90;;;8.39;93.37;101754.72;4120518;28;20066;-71
2021/01/19 00:10:11;;;;;;;11.55;2.53;;;9.30;99.90;;;8.45;93.81;101757.72;4132662;28;20026;-71
2021/01/19 00:12:12;;;;;;;8.93;2.25;;;9.20;99.90;;;8.48;92.93;101756.66;4136954;28;20035;-72
2021/01/19 00:14:13;;;;;;;10.20;2.13;;;9.30;99.90;;;8.33;93.98;101741.06;4138084;28;20033;-71
2021/01/19 00:16:14;;;;;;;6.03;2.17;;;9.20;99.90;;;8.44;93.92;101750.78;4138018;28;20030;-72
2021/01/19 00:18:16;;;;;;;10.27;2.40;;;9.20;99.90;;;8.45;93.02;101733.22;4125386;28;20486;-72
2021/01/19 00:20:17;;;;;;;6.75;1.63;;;9.20;99.90;;;8.42;92.71;101733.44;4120891;28;20086;-71
2021/01/19 00:22:18;;;;;;;5.65;1.55;;;9.20;99.90;;;8.41;92.71;101732.59;4122162;28;20027;-71
2021/01/19 00:24:19;;;;;;;7.25;2.35;;;9.30;99.90;;;8.36;92.31;101721.63;4120814;28;20043;-71
2021/01/19 00:26:20;;;;;;;7.90;2.55;;;9.20;99.90;;;8.37;92.03;101715.38;4104779;28;20094;-71
2021/01/19 00:28:21;;;;;;;5.40;1.45;;;9.20;99.90;;;8.39;91.98;101724.00;4136572;28;20065;-71
2021/01/19 00:30:22;;;;;;;4.82;1.50;;;9.30;99.90;;;8.40;91.81;101722.19;4115534;28;20066;-71
2021/01/19 00:32:23;;;;;;;4.50;1.52;;;9.30;99.90;;;8.37;91.60;101710.13;4120637;28;20022;-71
2021/01/19 00:34:24;;;;;;;5.97;1.63;;;9.30;99.90;;;8.46;91.26;101717.31;4121745;28;20034;-71
2021/01/19 00:36:25;;;;;;;5.03;1.58;;;9.30;99.90;;;8.45;90.96;101705.13;4104455;28;20045;-71
2021/01/19 00:38:25;;;;;;;6.97;1.65;;;9.30;99.90;;;8.49;90.26;101711.81;4120566;28;20026;-71
2021/01/19 00:40:30;;;;;;;2.30;1.40;;;9.30;99.90;;;8.44;90.96;101708.72;4121890;28;20125;-71
2021/01/19 00:42:31;;;;;;;4.97;1.50;;;9.30;99.90;;;8.41;89.94;101705.47;4130485;28;20442;-71
2021/01/19 00:44:32;;;;;;;5.22;1.50;;;9.30;99.90;;;8.41;90.11;101689.69;4139626;28;20034;-71
2021/01/19 00:46:33;;;;;;;2.05;1.20;;;9.30;99.90;;;8.36;89.81;101679.56;4120381;28;20033;-71
2021/01/19 00:48:34;;;;;;;6.93;1.35;;;9.30;99.90;;;8.50;89.89;101689.81;4136558;28;20032;-71
2021/01/19 00:50:35;;;;;;;6.20;1.85;;;9.30;99.90;;;8.49;90.02;101693.41;4137806;28;20033;-71
2021/01/19 00:52:37;;;;;;;5.32;1.77;;;9.30;99.90;;;8.51;89.63;101691.47;4129503;28;20054;-71
2021/01/19 00:54:38;;;;;;;5.28;1.75;;;9.30;99.90;;;8.49;89.87;101684.66;4120330;28;20027;-71
2021/01/19 00:56:41;;;;;;;5.60;1.60;;;9.30;99.90;;;8.53;89.75;101684.34;4136570;28;20390;-71
2021/01/19 00:58:43;;;;;;;4.35;1.67;;;9.30;99.90;;;8.50;90.28;101675.84;4136380;28;20022;-72
2021/01/19 01:00:44;;;;;;;6.13;2.00;;;9.30;99.90;;;8.37;90.01;101661.97;4121213;28;20038;-71
2021/01/19 01:02:45;;;;;;;8.27;2.30;;;9.30;99.90;;;8.40;89.76;101661.72;4128251;28;20034;-71
2021/01/19 01:04:46;;;;;;;7.03;2.75;;;9.30;99.90;;;8.51;89.78;101659.94;4120039;28;20118;-71
2021/01/19 01:06:55;;;;;;;6.25;1.85;;;9.40;99.90;;;8.54;90.08;101654.44;4136463;28;20027;-71
2021/01/19 01:08:55;;;;;;;6.70;2.45;;;9.30;99.90;;;8.57;90.63;101664.72;4136161;28;20101;-71
2021/01/19 01:10:56;;;;;;;8.32;2.83;;;9.30;99.90;;;8.56;90.24;101657.78;4152599;28;20034;-72
2021/01/19 01:12:57;;;;;;;8.40;2.20;;;9.40;99.90;;;8.50;90.57;101647.75;4120009;28;20035;-71
2021/01/19 01:14:59;;;;;;;6.38;1.92;;;9.40;99.90;;;8.59;90.21;101640.94;4152012;28;20049;-71
2021/01/19 01:17:01;;;;;;;7.68;2.47;;;9.40;99.90;;;8.58;90.88;101634.84;4152247;28;20113;-71
2021/01/19 01:19:07;;;;;;;9.32;2.38;;;9.40;99.90;;;8.65;90.23;101651.81;4151531;28;20026;-71
2021/01/19 01:21:12;;;;;;;9.45;3.08;;;9.50;99.90;;;8.66;90.48;101639.50;4152341;28;20034;-71
2021/01/19 01:23:14;;;;;;;5.88;2.33;;;9.40;99.90;;;8.60;90.60;101640.78;4135967;28;20093;-72
2021/01/19 01:25:16;;;;;;;9.25;2.40;;;9.40;99.90;;;8.64;90.72;101636.97;4135901;28;20461;-72
2021/01/19 01:27:17;;;;;;;7.90;2.35;;;9.40;99.90;;;8.51;91.53;101617.84;4136023;28;20030;-72
2021/01/19 01:29:18;;;;;;;9.88;3.15;;;9.40;99.90;;;8.49;90.95;101617.16;4137228;28;20113;-72
2021/01/19 01:31:22;;;;;;;8.35;1.98;;;9.40;99.90;;;8.49;91.98;101630.28;4137055;28;20029;-72
2021/01/19 01:33:23;;;;;;;;;;;9.30;99.90;;;8.51;91.91;101620.47;4134233;28;20031;-71
2021/01/19 01:35:24;;;;;;;11.30;2.17;;;9.40;99.90;;;8.55;90.77;101623.72;4121113;28;20294;-72
2021/01/19 01:37:25;;;;;;;5.50;2.05;;;9.40;99.90;;;8.64;90.92;101626.44;4120031;28;20026;-71
2021/01/19 01:39:26;;;;;;;5.50;1.85;;;9.40;99.90;;;8.54;90.94;101619.44;4121001;28;20027;-71
2021/01/19 01:41:27;;;;;;;13.02;2.45;;;9.40;99.90;;;8.60;90.82;101624.19;4120925;28;20042;-71
2021/01/19 01:43:28;;;;;;;8.73;2.65;;;9.40;99.90;;;8.66;90.95;101621.91;4132404;28;20031;-72
2021/01/19 01:45:28;;;;;;;7.60;3.13;;;9.40;99.90;;;8.68;90.48;101627.91;4128434;28;20027;-72
2021/01/19 01:47:30;;;;;;;8.27;2.60;;;9.40;99.90;;;8.68;90.52;101624.41;4126270;28;20031;-71
2021/01/19 01:49:31;;;;;;;6.20;2.67;;;9.40;99.90;;;8.58;90.97;101624.31;4119664;28;20074;-71
2021/01/19 01:51:33;;;;;;;5.07;1.92;;;9.40;99.90;;;8.65;90.96;101615.00;4121512;28;20041;-71
2021/01/19 01:53:37;;;;;;;10.88;3.08;;;9.40;99.90;;;8.66;90.14;101621.91;4144040;28;20077;-71
2021/01/19 01:55:37;;;;;;;9.33;4.13;;;9.40;99.90;;;8.74;90.62;101622.16;4135901;28;20591;-71
2021/01/19 01:57:39;;;;;;;12.45;4.07;;;9.50;99.90;;;8.69;90.26;101615.59;4119459;28;20031;-71
2021/01/19 01:59:40;;;;;;;6.95;2.17;;;9.50;99.90;;;8.67;90.43;101617.47;4152097;28;20022;-71
2021/01/19 02:01:40;;;;;;;8.93;2.65;;;9.50;99.90;;;8.58;90.94;101610.31;4151656;28;20447;-72
2021/01/19 02:03:41;;;;;;;11.80;2.85;;;9.40;99.90;;;8.70;91.00;101617.22;4125508;28;20138;-71
2021/01/19 02:05:42;;;;;;;6.55;2.10;;;9.50;99.90;;;8.62;91.76;101602.09;4119353;28;20090;-71
2021/01/19 02:08:10;;;;;;;10.38;3.42;;;9.40;99.90;;;8.57;91.21;101612.09;4120585;28;20027;-71
2021/01/19 02:10:52;;;;;;;10.70;3.00;;;9.50;99.90;;;8.62;91.20;101611.75;4124945;28;20133;-71
2021/01/19 02:13:38;;;;;;;7.78;2.10;;;9.40;99.90;;;8.60;91.55;101609.22;4118390;28;20050;-71
2021/01/19 02:15:47;;;;;;;8.38;2.40;;;9.40;99.90;;;8.63;91.88;101614.25;4119564;28;20491;-72
2021/01/19 02:18:33;;;;;;;11.43;2.92;;;9.40;99.90;;;8.45;91.72;101586.81;4119433;28;20058;-73
2021/01/19 02:21:24;;;;;;;9.70;2.83;;;9.40;99.90;;;8.64;92.00;101607.19;4135513;28;20026;-71
2021/01/19 02:23:51;;;;;;;9.23;2.15;;;9.40;99.90;;;8.60;91.26;101590.03;4114581;28;20548;-71
2021/01/19 02:25:57;;;;;;;9.32;3.00;;;9.40;99.90;;;8.60;91.69;101600.53;4135377;28;20026;-71
2021/01/19 02:28:19;;;;;;;9.80;2.22;;;9.40;99.90;;;8.60;91.58;101598.72;4134981;28;20034;-71
2021/01/19 02:30:48;;;;;;;8.43;2.28;;;9.40;99.90;;;8.62;92.03;101591.56;4132260;28;20034;-72
2021/01/19 02:33:17;;;;;;;14.45;2.58;;;9.40;99.90;;;8.68;91.58;101580.56;4118905;28;20035;-71
2021/01/19 02:36:07;;;;;;;6.57;1.90;;;9.50;99.90;;;8.69;90.99;101568.25;4118703;28;20066;-72
2021/01/19 02:38:35;;;;;;;8.60;2.10;;;9.50;99.90;;;8.68;91.18;101580.56;4070494;29;20039;-72
2021/01/19 02:40:36;;;;;;;4.82;2.15;;;9.40;99.90;;;8.62;91.33;101567.06;4120159;28;20026;-71
2021/01/19 02:42:44;;;;;;;11.18;2.35;;;9.50;99.90;;;8.58;91.59;101565.63;4114042;28;20027;-71
2021/01/19 02:44:47;;;;;;;13.27;2.22;;;9.40;99.90;;;8.71;91.02;101567.16;4119674;28;20027;-71
2021/01/19 02:46:59;;;;;;;7.75;2.60;;;9.50;99.90;;;8.66;91.24;101574.56;4118942;28;20101;-72
2021/01/19 02:49:00;;;;;;;10.88;2.35;;;9.50;99.90;;;8.62;91.53;101560.00;4118931;28;20059;-72
2021/01/19 02:51:01;;;;;;;7.90;2.03;;;9.40;99.90;;;8.71;91.15;101567.16;4119043;28;20027;-72
2021/01/19 02:53:04;;;;;;;11.43;3.15;;;9.50;99.90;;;8.66;91.29;101569.28;4140893;28;20181;-71
2021/01/19 02:55:06;;;;;;;13.57;2.03;;;9.50;99.90;;;8.68;91.00;101567.41;4118707;28;20106;-71
2021/01/19 02:57:53;;;;;;;7.88;2.30;;;9.50;99.90;;;8.67;91.31;101563.09;4118819;28;20066;-72
2021/01/19 03:00:50;;;;;;;5.40;2.13;;;9.50;99.90;;;8.60;91.93;101542.69;4119762;28;20086;-71
2021/01/19 03:02:52;;;;;;;6.68;2.63;;;9.50;99.90;;;8.68;91.45;101570.03;4127486;28;20030;-72
2021/01/19 03:04:58;;;;;;;11.73;2.38;;;9.50;99.90;;;8.62;91.89;101544.22;4134669;28;20086;-71
2021/01/19 03:07:05;;;;;;;10.23;2.40;;;9.50;99.90;;;8.61;91.65;101539.06;4134826;28;20559;-71
2021/01/19 03:09:08;;;;;;;10.07;2.40;;;9.50;99.90;;;8.68;92.03;101545.53;4119181;28;21136;-71
2021/01/19 03:11:15;;;;;;;12.82;2.30;;;9.50;99.90;;;8.52;91.29;101540.66;4118945;28;20027;-71
2021/01/19 03:13:16;;;;;;;11.63;2.60;;;9.50;99.90;;;8.53;92.04;101542.34;4119771;28;20475;-71
2021/01/19 03:15:18;;;;;;;10.68;2.35;;;9.50;99.90;;;8.61;92.01;101531.19;4119291;28;20459;-71
2021/01/19 03:17:19;;;;;;;14.15;4.00;;;9.40;99.90;;;8.60;92.02;101538.22;4118456;28;20030;-71
2021/01/19 03:19:20;;;;;;;14.20;4.82;;;9.50;99.90;;;8.62;91.82;101533.72;4125531;28;20034;-71
2021/01/19 03:21:21;;;;;;;11.82;3.72;;;9.50;99.90;;;8.61;91.65;101531.19;4135886;28;20026;-72
2021/01/19 03:23:22;;;;;;;15.98;4.85;;;9.50;99.90;;;8.62;91.53;101533.72;4118267;28;20391;-71
2021/01/19 03:25:23;;;;;;;15.57;6.28;;;9.40;99.90;;;8.63;91.78;101539.81;4134638;28;20038;-72
2021/01/19 03:27:24;;;;;;;20.80;5.72;;;9.40;99.90;;;8.63;91.78;101532.72;4141489;28;20416;-71
2021/01/19 03:29:25;;;;;;;20.77;7.57;;;9.40;99.90;;;8.65;91.33;101530.81;4146404;28;20019;-71
2021/01/19 03:31:26;;;;;;;36.03;10.30;;;9.40;99.90;;;8.71;91.55;101532.97;4118133;28;20117;-72
2021/01/19 03:33:27;;;;;;;25.15;8.63;;;9.50;99.90;;;8.67;91.45;101518.38;4119465;28;20034;-72
2021/01/19 03:35:28;;;;;;;20.25;5.68;;;9.50;99.90;;;8.71;91.23;101522.44;4119692;28;20038;-72
2021/01/19 03:37:29;;;;;;;27.40;8.23;;;9.50;99.90;;;8.67;90.83;101518.38;4118439;28;20023;-72
2021/01/19 03:39:31;;;;;;;12.15;6.10;;;9.50;99.90;;;8.79;91.23;101530.53;4119505;28;20027;-71
2021/01/19 03:41:32;;;;;;;9.82;3.40;;;9.50;99.90;;;8.76;91.03;101520.25;4120262;28;20026;-71
2021/01/19 03:43:33;;;;;;;10.93;3.20;;;9.50;99.90;;;8.75;90.96;101521.22;4148686;28;20038;-71
2021/01/19 03:45:34;;;;;;;11.77;5.43;;;9.60;99.90;;;8.74;90.93;101523.97;4121429;28;20394;-71
2021/01/19 03:47:35;;;;;;;14.93;4.43;;;9.50;99.90;;;8.77;90.93;101526.34;4105489;28;20032;-71
2021/01/19 03:49:36;;;;;;;7.85;3.58;;;9.50;99.90;;;8.76;90.94;101516.78;4121430;28;20050;-71
2021/01/19 03:51:37;;;;;;;16.10;4.20;;;9.60;99.90;;;8.73;91.61;101523.13;4124586;28;20069;-71
2021/01/19 03:53:38;;;;;;;10.00;3.08;;;9.50;99.90;;;8.68;91.02;101509.53;4152553;28;20046;-72
2021/01/19 03:55:39;;;;;;;9.20;2.58;;;9.50;99.90;;;8.72;91.00;101515.38;4121450;28;20027;-71
2021/01/19 03:57:40;;;;;;;10.40;2.97;;;9.50;99.90;;;8.63;90.74;101505.63;4138992;28;20465;-71
2021/01/19 03:59:40;;;;;;;10.13;3.17;;;9.50;99.90;;;8.64;90.85;101502.84;4138479;28;20023;-72
2021/01/19 04:01:41;;;;;;;8.93;2.10;;;9.50;99.90;;;8.67;90.84;101501.75;4121366;28;20023;-72
2021/01/19 04:03:43;;;;;;;10.13;2.55;;;9.50;99.90;;;8.69;91.39;101508.56;4153365;28;20083;-71
2021/01/19 04:05:44;;;;;;;11.48;2.67;;;9.50;99.90;;;8.67;91.48;101502.59;4153598;28;20025;-71
2021/01/19 04:07:45;;;;;;;12.88;2.70;;;9.40;99.90;;;8.70;90.87;101496.25;4137458;28;20100;-72
2021/01/19 04:09:46;;;;;;;8.00;2.22;;;9.50;99.90;;;8.68;91.10;101482.41;4138569;28;20034;-72
2021/01/19 04:11:47;;;;;;;11.65;3.33;;;9.40;99.90;;;8.60;90.87;101463.78;4121203;28;20065;-72
2021/01/19 04:13:48;;;;;;;9.35;3.00;;;9.50;99.90;;;8.69;91.34;101479.63;4138151;28;20113;-72
2021/01/19 04:15:50;;;;;;;11.65;2.70;;;9.50;99.90;;;8.67;90.33;101476.28;4136976;28;20429;-71
2021/01/19 04:17:50;;;;;;;8.88;2.67;;;9.50;99.90;;;8.61;91.43;101486.47;4130188;28;20043;-71
2021/01/19 04:19:51;;;;;;;8.82;2.90;;;9.50;99.90;;;8.63;91.26;101480.13;4121102;28;20038;-72
2021/01/19 04:21:52;;;;;;;9.82;2.58;;;9.40;99.90;;;8.69;90.98;101484.88;4120920;28;20526;-72
2021/01/19 04:23:53;;;;;;;6.88;2.50;;;9.50;99.90;;;8.48;91.38;101476.16;4104785;28;20035;-71
2021/01/19 04:25:54;;;;;;;8.00;2.55;;;9.40;99.90;;;8.60;91.37;101474.31;4121062;28;20023;-72
2021/01/19 04:27:55;;;;;;;8.48;2.35;;;9.40;99.90;;;8.56;91.59;101483.41;4105091;28;20544;-71
2021/01/19 04:29:56;;;;;;;12.20;3.10;;;9.40;99.90;;;8.58;91.76;101481.47;4135164;28;20034;-71
2021/01/19 04:31:57;;;;;;;8.43;2.35;;;9.40;99.90;;;8.61;91.82;101465.44;4120999;28;20457;-72
2021/01/19 04:33:57;;;;;;;6.57;3.08;;;9.40;99.90;;;8.64;91.67;101471.28;4128738;28;20031;-71
2021/01/19 04:35:58;;;;;;;10.88;2.67;;;9.50;99.90;;;8.68;91.20;101461.34;4120900;28;20109;-72
2021/01/19 04:38:00;;;;;;;8.45;3.15;;;9.40;99.90;;;8.63;91.48;101460.91;4120827;28;20556;-71
2021/01/19 04:40:04;;;;;;;13.65;2.38;;;9.50;99.90;;;8.66;91.14;101455.41;4122069;28;20027;-71
2021/01/19 04:42:05;;;;;;;8.65;2.50;;;9.50;99.90;;;8.61;92.21;101455.75;4127010;28;20033;-71
2021/01/19 04:44:07;;;;;;;14.80;2.80;;;9.40;99.90;;;8.52;92.14;101451.25;4128280;28;20162;-71
2021/01/19 04:46:10;;;;;;;11.40;2.58;;;9.40;99.90;;;8.60;92.29;101454.06;4120550;28;20025;-71
2021/01/19 04:48:12;;;;;;;9.63;2.92;;;9.50;99.90;;;8.73;92.07;101453.91;4121966;28;20053;-72
2021/01/19 04:50:14;;;;;;;9.98;2.70;;;9.50;99.90;;;8.68;91.95;101466.63;4120680;28;20054;-71
2021/01/19 04:52:18;;;;;;;9.98;2.50;;;9.50;99.90;;;8.72;92.53;101453.06;4117819;28;20034;-72
2021/01/19 04:54:25;;;;;;;7.60;3.15;;;9.40;99.90;;;8.68;92.77;101462.19;4124289;28;20499;-72
2021/01/19 04:56:27;;;;;;;15.25;2.58;;;9.40;99.90;;;8.70;92.84;101448.91;4136815;28;20031;-71
2021/01/19 04:58:31;;;;;;;10.18;2.35;;;9.50;99.90;;;8.55;93.69;101448.38;4137981;28;20022;-71
2021/01/19 05:00:37;;;;;;;7.50;2.40;;;9.40;99.90;;;8.57;93.23;101443.81;4120012;28;20030;-72
2021/01/19 05:02:43;;;;;;;7.53;2.10;;;9.40;99.90;;;8.68;93.05;101456.94;4136180;28;20030;-71
2021/01/19 05:04:52;;;;;;;8.40;3.17;;;9.50;99.90;;;8.57;93.77;101443.81;4137591;28;20054;-72
2021/01/19 05:07:34;;;;;;;5.93;2.22;;;9.40;99.90;;;8.68;94.02;101445.56;4136601;28;20209;-71
2021/01/19 05:09:36;;;;;;;9.98;2.45;;;9.30;99.90;;;8.64;93.77;101428.38;4137728;28;20370;-71
2021/01/19 05:11:51;;;;;;;8.85;3.50;;;9.40;99.90;;;8.59;93.50;101427.91;4120326;28;20051;-72
2021/01/19 05:14:01;;;;;;;10.73;2.90;;;9.40;99.90;;;8.56;94.20;101421.13;4136180;28;20030;-72
2021/01/19 05:16:03;;;;;;;8.73;2.63;;;9.40;99.90;;;8.50;94.15;101419.00;4136224;28;20030;-71
2021/01/19 05:18:13;;;;;;;16.20;3.20;;;9.30;99.90;;;8.60;94.46;101419.88;4120186;28;20113;-71
2021/01/19 05:20:14;;;;;;;7.20;3.25;;;9.30;99.90;;;8.66;94.17;101423.84;4136250;28;20109;-71
2021/01/19 05:22:19;;;;;;;7.38;2.40;;;9.30;99.90;;;8.57;94.28;101420.13;4136139;28;20451;-71
2021/01/19 05:24:20;;;;;;;9.15;2.40;;;9.40;99.90;;;8.72;94.55;101431.22;4136134;28;20041;-71
2021/01/19 05:26:21;;;;;;;11.43;2.65;;;9.30;99.90;;;8.69;94.09;101421.75;4137405;28;20109;-71
2021/01/19 05:28:31;;;;;;;11.02;1.90;;;9.40;99.90;;;8.71;94.35;101430.38;4136088;28;20117;-72
2021/01/19 05:30:35;;;;;;;14.23;4.18;;;9.30;99.90;;;8.58;93.94;101424.44;4136963;28;20061;-72
2021/01/19 05:32:43;;;;;;;9.80;3.20;;;9.40;99.90;;;8.68;94.17;101428.00;4136226;28;20069;-71
2021/01/19 05:34:44;;;;;;;11.43;2.83;;;9.30;99.90;;;8.62;93.97;101415.34;4135703;28;20065;-71
2021/01/19 05:36:50;;;;;;;9.02;2.28;;;9.30;99.90;;;8.66;94.32;101422.00;4137369;28;20018;-71
2021/01/19 05:38:56;;;;;;;13.38;2.15;;;9.30;99.90;;;8.70;94.98;101415.56;4137208;28;20433;-71
2021/01/19 05:40:57;;;;;;;8.75;2.28;;;9.30;99.90;;;8.61;94.76;101408.41;4137230;28;20023;-71
2021/01/19 05:43:12;;;;;;;8.48;3.00;;;9.30;99.90;;;8.69;93.95;101403.34;4136691;28;20049;-71
2021/01/19 05:45:13;;;;;;;11.82;2.80;;;9.40;99.90;;;8.67;93.30;101391.28;4103355;28;20106;-71
2021/01/19 05:47:14;;;;;;;8.55;2.83;;;9.40;99.90;;;8.60;93.69;101396.22;4119881;28;20031;-71
2021/01/19 05:49:18;;;;;;;15.32;2.88;;;9.40;99.90;;;8.65;93.90;101398.50;4120961;28;20487;-71
2021/01/19 05:51:22;;;;;;;9.27;2.25;;;9.40;99.90;;;8.66;93.10;101390.44;4119657;28;20440;-72
2021/01/19 05:53:24;;;;;;;7.93;2.20;;;9.40;99.90;;;8.67;93.84;101397.38;4138203;28;20066;-71
2021/01/19 05:55:27;;;;;;;11.70;2.58;;;9.30;99.90;;;8.64;93.79;101384.50;4113182;28;20078;-71
2021/01/19 05:57:28;;;;;;;13.98;3.88;;;9.30;99.90;;;8.55;94.10;101385.25;4135587;28;20023;-71
2021/01/19 05:59:41;;;;;;;10.18;3.05;;;9.40;99.90;;;8.62;93.63;101390.84;4119353;28;20051;-71
2021/01/19 06:01:43;;;;;;;12.73;2.20;;;9.40;99.90;;;8.56;93.47;101376.44;4136900;28;20462;-71
2021/01/19 06:04:00;;;;;;;8.60;2.80;;;9.40;99.90;;;8.68;93.74;101380.66;4123458;28;20106;-72
2021/01/19 06:06:14;;;;;;;7.95;2.15;;;9.40;99.90;;;8.58;94.72;101389.44;4123371;28;20061;-71
2021/01/19 06:08:21;;;;;;;9.65;2.47;;;9.30;99.90;;;8.62;94.61;101385.59;4135541;28;20125;-71
2021/01/19 06:10:27;;;;;;;12.80;3.47;;;9.40;99.90;;;8.53;95.29;101386.34;4135485;28;20129;-72
2021/01/19 06:12:35;;;;;;;8.95;2.63;;;9.30;99.90;;;8.49;95.59;101380.50;4135545;28;20030;-71
2021/01/19 06:14:37;;;;;;;5.57;2.70;;;9.30;99.90;;;8.51;95.77;101375.94;4126991;28;20031;-71
2021/01/19 06:16:38;;;;;;;15.27;2.72;;;9.30;99.90;;;8.42;95.69;101376.75;4119281;28;20042;-72
2021/01/19 06:18:38;;;;;;;10.48;3.78;;;9.20;99.90;;;8.30;96.38;101351.47;4119146;28;20483;-72
2021/01/19 06:20:43;;;;;;;12.90;2.45;;;9.20;99.90;;;8.50;95.50;101358.53;4120402;28;20093;-71
2021/01/19 06:22:44;;;;;;;8.10;2.88;;;9.20;99.90;;;8.49;95.72;101363.91;4127627;28;20034;-71
2021/01/19 06:24:48;;;;;;;12.10;3.50;;;9.20;99.90;;;8.59;95.73;101375.31;4118987;28;20529;-71
2021/01/19 06:26:49;;;;;;;9.52;2.70;;;9.30;99.90;;;8.61;95.40;101373.41;4134939;28;20041;-71
2021/01/19 06:28:50;;;;;;;10.93;4.10;;;9.30;99.90;;;8.55;96.35;101366.84;4136456;28;20441;-71
2021/01/19 06:30:51;;;;;;;13.75;4.07;;;9.40;99.90;;;8.63;95.33;101366.22;4135005;28;20540;-71
2021/01/19 06:32:52;;;;;;;11.05;2.88;;;9.30;99.90;;;8.68;95.70;101364.88;4135181;28;20138;-71
2021/01/19 06:34:53;;;;;;;14.00;4.88;;;9.30;99.90;;;8.52;95.78;101339.97;4118672;28;20094;-71
2021/01/19 06:36:55;;;;;;;15.27;3.00;;;9.30;99.90;;;8.62;95.32;101360.13;4135256;28;20030;-71
2021/01/19 06:38:56;;;;;;;9.35;2.83;;;9.30;99.90;;;8.54;95.81;101365.19;4126497;28;20041;-71
2021/01/19 06:41:01;;;;;;;9.75;3.20;;;9.30;99.90;;;8.64;95.89;101363.47;4102860;28;20051;-72
2021/01/19 06:43:04;;;;;;;4.88;2.55;;;9.30;99.90;;;8.64;96.51;101358.19;4149116;28;20034;-72
2021/01/19 06:45:08;;;;;;;14.50;3.05;;;9.30;99.90;;;8.68;95.96;101350.91;4102476;28;20118;-71
2021/01/19 06:47:09;;;;;;;12.88;2.97;;;9.30;99.90;;;8.54;96.52;101341.50;4118946;28;20109;-71
2021/01/19 06:49:14;;;;;;;9.27;3.25;;;9.30;99.90;;;8.56;96.54;101338.78;4120085;28;20027;-71
2021/01/19 06:51:15;;;;;;;10.05;2.53;;;9.30;99.90;;;8.56;96.42;101331.72;4118811;28;20034;-71
2021/01/19 06:53:36;;;;;;;8.50;3.05;;;9.30;99.90;;;8.51;96.53;101340.97;4120752;28;20043;-72
2021/01/19 06:55:57;;;;;;;5.35;2.55;;;9.30;99.90;;;8.54;97.12;101349.41;4102971;28;20506;-71
2021/01/19 06:58:17;;;;;;;12.82;3.15;;;9.30;99.90;;;8.47;96.87;101343.00;4118898;28;20018;-71
2021/01/19 07:00:20;;;;;;;9.07;2.40;;;9.20;99.90;;;8.48;97.07;101339.44;4118565;28;20066;-72
2021/01/19 07:02:23;;;;;;;8.75;2.90;;;9.20;99.90;;;8.48;97.02;101344.69;4106289;28;20050;-71
2021/01/19 07:04:25;;;;;;;10.52;2.80;;;9.20;99.90;;;8.49;96.79;101334.97;4122518;28;20117;-71
2021/01/19 07:07:06;;;;;;;10.88;3.30;;;9.20;99.90;;;8.57;97.30;101336.00;4135889;28;20077;-72
2021/01/19 07:09:41;;;;;;;7.88;2.88;;;9.20;99.90;;;8.54;96.99;101344.13;4134923;28;20038;-71
2021/01/19 07:12:06;;;;;;;8.27;2.60;;;9.30;99.90;;;8.54;97.16;101341.50;4135947;28;20053;-72
2021/01/19 07:14:11;;;;;;;10.40;2.45;;;9.20;99.90;;;8.52;97.35;101346.06;4135563;28;20282;-71
2021/01/19 07:16:31;;;;;;;7.38;2.50;;;9.20;99.90;;;8.50;97.01;101332.22;4135183;28;20095;-72
2021/01/19 07:18:53;;;;;;;7.57;2.15;;;9.30;99.90;;;8.51;97.45;101344.41;4134555;28;20425;-72
2021/01/19 07:21:11;;;;;;;8.60;2.92;;;9.20;99.90;;;8.39;97.76;101327.03;4135763;28;20098;-72
2021/01/19 07:23:40;;;;;;;9.90;3.72;;;9.20;99.90;;;8.57;97.66;101322.84;4134645;28;20092;-72
2021/01/19 07:25:42;;;;;;;8.02;2.33;;;9.20;99.90;;;8.51;97.61;101304.97;4126349;28;20449;-72
2021/01/19 07:27:45;;;;;;;8.52;2.38;;;9.20;99.90;;;8.46;97.65;101320.28;4135828;28;20593;-72
2021/01/19 07:29:47;;;;;;;8.35;2.20;;;9.20;99.90;;;8.47;97.62;101313.25;4133867;28;20039;-72
2021/01/19 07:31:48;;;;;;;7.25;2.22;;;9.30;99.90;;;8.55;97.31;101311.63;4134351;28;20121;-72
2021/01/19 07:33:55;;;;;;;13.93;4.90;;;9.30;99.90;;;8.54;97.18;101315.22;4135495;28;20084;-72
2021/01/19 07:35:56;;;;;;;7.75;2.60;;;9.30;99.90;;;8.49;97.07;101329.72;4130982;28;20631;-72
2021/01/19 07:38:01;;;;;;;13.52;3.67;;;9.30;99.90;;;8.51;97.42;101319.94;4133508;28;20026;-71
2021/01/19 07:40:14;;;;;;;;;;;9.30;99.90;;;8.43;98.03;101320.56;4132419;28;20536;-72
2021/01/19 07:42:18;;;;;;;8.50;2.58;;;9.20;99.90;;;8.49;97.83;101317.41;4119496;28;19999;-72
2021/01/19 07:44:24;;;;;;;6.70;2.40;;;9.20;99.90;;;8.44;98.10;101311.72;4150209;28;20504;-72
2021/01/19 07:46:27;;;;;;;9.65;3.35;;;9.30;99.90;;;8.44;97.69;101310.88;4134115;28;20034;-72
2021/01/19 07:48:31;;;;;;;9.10;3.50;;;9.10;99.90;;;8.45;97.83;101302.03;4134482;28;20053;-72
2021/01/19 07:50:44;;;;;;;10.77;2.30;;;9.20;99.90;;;8.43;97.67;101302.16;4134305;28;20465;-72
2021/01/19 07:52:47;;;;;;;13.32;2.75;;;9.20;99.90;;;8.39;97.65;101298.13;4138168;28;20125;-72
2021/01/19 07:54:48;;;;;;;20.92;3.65;;;9.20;99.90;;;8.48;97.65;101291.25;4117958;28;20450;-72
2021/01/19 07:56:49;;;;;;;8.05;3.50;;;9.20;99.90;;;8.42;97.31;101287.34;4127484;28;20042;-72
2021/01/19 07:58:50;;;;;;;15.88;2.63;;;9.20;99.90;;;8.50;97.40;101292.78;4134401;28;20574;-71
2021/01/19 08:00:56;;;;;;;8.25;2.90;;;9.20;99.90;;;8.44;97.49;101293.31;4130323;28;20418;-70
2021/01/19 08:03:07;;;;;;;11.85;3.10;;;9.20;99.90;;;8.36;97.77;101290.50;4120260;28;20658;-71
2021/01/19 08:05:09;;;;;;;10.70;2.78;;;9.20;99.90;;;8.40;97.70;101286.63;4121766;28;20057;-69
2021/01/19 08:07:19;;;;;;;11.45;3.08;;;9.20;99.90;;;8.52;97.09;101284.75;4134226;28;20027;-70
2021/01/19 08:09:20;;;;;;;15.32;2.42;;;9.20;99.90;;;8.52;96.90;101284.75;4146252;28;20033;-72
2021/01/19 08:11:21;;;;;;;14.18;2.88;;;9.30;99.90;;;8.56;96.99;101286.19;4125480;28;20046;-71
2021/01/19 08:13:23;;;;;;;9.23;2.60;;;9.30;99.90;;;8.62;96.85;101283.03;4117322;28;20015;-72
2021/01/19 08:15:28;;;;;;;10.05;4.15;;;9.30;99.90;;;8.58;96.38;101273.72;4118746;28;20046;-71
2021/01/19 08:17:37;;;;;;;9.23;3.25;;;9.30;99.90;;;8.52;96.78;101272.47;4117831;28;20117;-71
2021/01/19 08:19:43;;;;;;;16.50;4.05;;;9.30;99.90;;;8.60;96.41;101280.50;4117635;28;20038;-72
2021/01/19 08:21:53;;;;;;;10.70;3.25;;;9.30;99.90;;;8.47;96.29;101266.75;4117556;28;20026;-71
2021/01/19 08:23:54;;;;;;;11.35;2.95;;;9.30;99.90;;;8.54;96.82;101261.81;4117452;28;20038;-71
2021/01/19 08:26:07;;;;;;;8.05;3.35;;;9.40;99.90;;;8.59;96.28;101262.25;4101537;28;20038;-71
2021/01/19 08:28:10;;;;;;;10.57;3.85;;;9.30;99.90;;;8.66;95.69;101274.75;4131997;28;20034;-69
2021/01/19 08:30:27;;;;;;;8.43;2.97;;;9.40;99.90;;;8.56;95.98;101275.66;4117805;28;20033;-71
2021/01/19 08:32:28;;;;;;;7.95;2.92;;;9.30;99.90;;;8.50;96.52;101269.13;4134793;28;20034;-71
2021/01/19 08:34:32;;;;;;;12.40;3.30;;;9.40;99.90;;;8.53;96.32;101274.13;4135964;28;20121;-71
2021/01/19 08:36:35;;;;;;;15.73;4.75;;;9.40;99.90;;;8.63;95.94;101275.00;4104514;28;20145;-70
2021/01/19 08:38:37;;;;;;;11.55;3.47;;;9.40;99.90;;;8.74;95.33;101274.09;4142957;28;20766;-70
2021/01/19 08:40:40;;;;;;;11.50;5.22;;;9.40;99.90;;;8.71;95.69;101274.38;4120241;28;20027;-70
2021/01/19 08:42:41;;;;;;;12.43;4.35;;;9.50;99.90;;;8.79;95.54;101278.00;4131279;28;20030;-70
2021/01/19 08:44:42;;;;;;;10.23;3.20;;;9.50;99.90;;;8.81;95.50;101267.34;4142742;28;20037;-70
2021/01/19 08:46:44;;;;;;;14.32;3.83;;;9.60;99.90;;;8.83;94.83;101271.53;4131383;28;20019;-69
2021/01/19 08:48:45;;;;;;;12.23;3.05;;;9.50;99.90;;;8.82;94.93;101267.22;4127688;28;20022;-69
2021/01/19 08:50:46;;;;;;;9.13;2.65;;;9.60;99.90;;;8.75;95.34;101249.47;4119955;28;20022;-69